sensor_id;sensor_type;location;lat;lon;timestamp;pressure;altitude;pressure_sealevel;temperature;humidity
77723;BME280;67811;42.656;23.394;2023-09-18T00:01:56;95562.50;;;16.30;89.74
77723;BME280;67811;42.656;23.394;2023-09-18T00:04:21;95557.78;;;16.32;89.54
77723;BME280;67811;42.656;23.394;2023-09-18T00:06:46;95560.44;;;16.39;89.29
77723;BME280;67811;42.656;23.394;2023-09-18T00:09:12;95554.66;;;16.42;89.25
77723;BME280;67811;42.656;23.394;2023-09-18T00:11:37;95553.44;;;16.44;88.64
77723;BME280;67811;42.656;23.394;2023-09-18T00:14:03;95556.53;;;16.34;88.86
77723;BME280;67811;42.656;23.394;2023-09-18T00:16:28;95553.81;;;16.41;88.75
77723;BME280;67811;42.656;23.394;2023-09-18T00:18:53;95541.28;;;16.48;87.95
77723;BME280;67811;42.656;23.394;2023-09-18T00:21:19;95542.28;;;16.47;87.99
77723;BME280;67811;42.656;23.394;2023-09-18T00:23:44;95541.47;;;16.47;88.10
77723;BME280;67811;42.656;23.394;2023-09-18T00:26:09;95540.28;;;16.43;88.03
77723;BME280;67811;42.656;23.394;2023-09-18T00:28:34;95549.94;;;16.44;88.16
77723;BME280;67811;42.656;23.394;2023-09-18T00:31:00;95542.31;;;16.41;88.16
77723;BME280;67811;42.656;23.394;2023-09-18T00:33:25;95548.47;;;16.41;87.58
77723;BME280;67811;42.656;23.394;2023-09-18T00:35:51;95561.00;;;16.47;87.31
77723;BME280;67811;42.656;23.394;2023-09-18T00:38:17;95545.19;;;16.46;87.23
77723;BME280;67811;42.656;23.394;2023-09-18T00:40:43;95554.44;;;16.50;86.26
77723;BME280;67811;42.656;23.394;2023-09-18T00:43:08;95554.81;;;16.53;86.41
77723;BME280;67811;42.656;23.394;2023-09-18T00:45:35;95554.63;;;16.55;86.00
77723;BME280;67811;42.656;23.394;2023-09-18T00:48:03;95553.16;;;16.59;85.46
77723;BME280;67811;42.656;23.394;2023-09-18T00:50:28;95550.47;;;16.59;85.24
77723;BME280;67811;42.656;23.394;2023-09-18T00:52:54;95554.19;;;16.58;85.11
77723;BME280;67811;42.656;23.394;2023-09-18T00:55:19;95556.47;;;16.61;84.90
77723;BME280;67811;42.656;23.394;2023-09-18T00:57:44;95564.28;;;16.63;84.43
77723;BME280;67811;42.656;23.394;2023-09-18T01:00:12;95563.44;;;16.62;84.76
77723;BME280;67811;42.656;23.394;2023-09-18T01:02:37;95554.00;;;16.59;84.73
77723;BME280;67811;42.656;23.394;2023-09-18T01:05:02;95556.69;;;16.59;84.75
77723;BME280;67811;42.656;23.394;2023-09-18T01:07:28;95540.28;;;16.43;85.08
77723;BME280;67811;42.656;23.394;2023-09-18T01:09:53;95565.13;;;16.56;84.76
77723;BME280;67811;42.656;23.394;2023-09-18T01:12:34;95563.47;;;16.55;84.10
77723;BME280;67811;42.656;23.394;2023-09-18T01:15:22;95565.34;;;16.55;84.53
77723;BME280;67811;42.656;23.394;2023-09-18T01:17:50;95563.06;;;16.52;84.03
77723;BME280;67811;42.656;23.394;2023-09-18T01:20:15;95561.84;;;16.48;84.38
77723;BME280;67811;42.656;23.394;2023-09-18T01:22:41;95559.16;;;16.48;84.51
77723;BME280;67811;42.656;23.394;2023-09-18T01:25:06;95545.38;;;16.51;84.15
77723;BME280;67811;42.656;23.394;2023-09-18T01:27:32;95558.97;;;16.49;84.12
77723;BME280;67811;42.656;23.394;2023-09-18T01:29:57;95553.63;;;16.43;83.99
77723;BME280;67811;42.656;23.394;2023-09-18T01:32:25;95557.53;;;16.47;84.37
77723;BME280;67811;42.656;23.394;2023-09-18T01:34:53;95550.97;;;16.43;84.54
77723;BME280;67811;42.656;23.394;2023-09-18T01:37:20;95559.38;;;16.46;84.29
77723;BME280;67811;42.656;23.394;2023-09-18T01:39:47;95557.97;;;16.44;84.57
77723;BME280;67811;42.656;23.394;2023-09-18T01:42:13;95559.59;;;16.45;84.30
77723;BME280;67811;42.656;23.394;2023-09-18T01:44:38;95572.97;;;16.45;84.79
77723;BME280;67811;42.656;23.394;2023-09-18T01:47:06;95561.84;;;16.48;84.81
77723;BME280;67811;42.656;23.394;2023-09-18T01:49:33;95567.84;;;16.43;84.84
77723;BME280;67811;42.656;23.394;2023-09-18T01:51:59;95567.19;;;16.48;84.49
77723;BME280;67811;42.656;23.394;2023-09-18T01:54:25;95556.69;;;16.53;84.36
77723;BME280;67811;42.656;23.394;2023-09-18T01:56:51;95564.09;;;16.51;84.28
77723;BME280;67811;42.656;23.394;2023-09-18T01:59:20;95573.97;;;16.50;84.18
77723;BME280;67811;42.656;23.394;2023-09-18T02:01:45;95571.09;;;16.52;84.10
77723;BME280;67811;42.656;23.394;2023-09-18T02:04:11;95569.84;;;16.48;84.29
77723;BME280;67811;42.656;23.394;2023-09-18T02:06:36;95558.16;;;16.49;84.05
77723;BME280;67811;42.656;23.394;2023-09-18T02:09:02;95575.41;;;16.53;84.07
77723;BME280;67811;42.656;23.394;2023-09-18T02:11:27;95567.19;;;16.54;83.73
77723;BME280;67811;42.656;23.394;2023-09-18T02:13:52;95573.13;;;16.63;83.44
77723;BME280;67811;42.656;23.394;2023-09-18T02:16:18;95583.22;;;16.61;83.70
77723;BME280;67811;42.656;23.394;2023-09-18T02:18:43;95577.25;;;16.52;83.68
77723;BME280;67811;42.656;23.394;2023-09-18T02:21:08;95585.50;;;16.51;83.62
77723;BME280;67811;42.656;23.394;2023-09-18T02:23:33;95572.34;;;16.49;83.11
77723;BME280;67811;42.656;23.394;2023-09-18T02:25:59;95578.31;;;16.45;83.98
77723;BME280;67811;42.656;23.394;2023-09-18T02:28:24;95581.41;;;16.42;83.98
77723;BME280;67811;42.656;23.394;2023-09-18T02:30:49;95576.66;;;16.37;83.91
77723;BME280;67811;42.656;23.394;2023-09-18T02:33:15;95571.97;;;16.32;84.18
77723;BME280;67811;42.656;23.394;2023-09-18T02:35:41;95577.94;;;16.28;84.35
77723;BME280;67811;42.656;23.394;2023-09-18T02:38:06;95581.84;;;16.25;84.50
77723;BME280;67811;42.656;23.394;2023-09-18T02:40:31;95580.59;;;16.15;84.79
77723;BME280;67811;42.656;23.394;2023-09-18T02:42:56;95574.88;;;16.04;85.53
77723;BME280;67811;42.656;23.394;2023-09-18T02:45:22;95569.53;;;16.04;85.44
77723;BME280;67811;42.656;23.394;2023-09-18T02:47:47;95576.53;;;15.99;85.65
77723;BME280;67811;42.656;23.394;2023-09-18T02:50:12;95567.66;;;15.92;85.64
77723;BME280;67811;42.656;23.394;2023-09-18T02:52:37;95574.06;;;15.84;86.11
77723;BME280;67811;42.656;23.394;2023-09-18T02:55:03;95575.09;;;15.83;86.26
77723;BME280;67811;42.656;23.394;2023-09-18T02:57:28;95573.25;;;15.77;86.66
77723;BME280;67811;42.656;23.394;2023-09-18T02:59:53;95569.53;;;15.71;86.97
77723;BME280;67811;42.656;23.394;2023-09-18T03:02:19;95565.19;;;15.70;87.10
77723;BME280;67811;42.656;23.394;2023-09-18T03:04:44;95577.94;;;15.68;87.23
77723;BME280;67811;42.656;23.394;2023-09-18T03:07:09;95578.78;;;15.69;87.08
77723;BME280;67811;42.656;23.394;2023-09-18T03:09:34;95573.59;;;15.61;87.49
77723;BME280;67811;42.656;23.394;2023-09-18T03:12:00;95575.63;;;15.59;87.44
77723;BME280;67811;42.656;23.394;2023-09-18T03:14:25;95581.41;;;15.55;87.88
77723;BME280;67811;42.656;23.394;2023-09-18T03:16:50;95578.91;;;15.54;88.10
77723;BME280;67811;42.656;23.394;2023-09-18T03:19:15;95571.09;;;15.46;88.37
77723;BME280;67811;42.656;23.394;2023-09-18T03:21:41;95570.91;;;15.47;88.35
77723;BME280;67811;42.656;23.394;2023-09-18T03:24:06;95575.25;;;15.55;88.18
77723;BME280;67811;42.656;23.394;2023-09-18T03:26:31;95566.59;;;15.46;88.44
77723;BME280;67811;42.656;23.394;2023-09-18T03:28:57;95568.00;;;15.49;88.87
77723;BME280;67811;42.656;23.394;2023-09-18T03:31:22;95564.75;;;15.47;88.67
77723;BME280;67811;42.656;23.394;2023-09-18T03:33:47;95569.03;;;15.48;88.64
77723;BME280;67811;42.656;23.394;2023-09-18T03:36:12;95559.59;;;15.52;88.49
77723;BME280;67811;42.656;23.394;2023-09-18T03:38:38;95558.38;;;15.54;88.43
77723;BME280;67811;42.656;23.394;2023-09-18T03:41:03;95563.53;;;15.49;88.44
77723;BME280;67811;42.656;23.394;2023-09-18T03:43:28;95559.59;;;15.52;88.56
77723;BME280;67811;42.656;23.394;2023-09-18T03:45:53;95556.34;;;15.50;88.58
77723;BME280;67811;42.656;23.394;2023-09-18T03:48:19;95552.19;;;15.47;88.96
77723;BME280;67811;42.656;23.394;2023-09-18T03:50:44;95556.13;;;15.58;87.92
77723;BME280;67811;42.656;23.394;2023-09-18T03:53:09;95558.19;;;15.56;88.14
77723;BME280;67811;42.656;23.394;2023-09-18T03:55:35;95552.63;;;15.58;87.84
77723;BME280;67811;42.656;23.394;2023-09-18T03:58:00;95555.34;;;15.64;87.50
77723;BME280;67811;42.656;23.394;2023-09-18T04:00:25;95550.19;;;15.69;87.25
77723;BME280;67811;42.656;23.394;2023-09-18T04:02:51;95547.13;;;15.66;87.29
77723;BME280;67811;42.656;23.394;2023-09-18T04:05:16;95560.66;;;15.64;87.42
77723;BME280;67811;42.656;23.394;2023-09-18T04:07:41;95550.34;;;15.54;87.77
77723;BME280;67811;42.656;23.394;2023-09-18T04:10:07;95560.00;;;15.36;88.77
77723;BME280;67811;42.656;23.394;2023-09-18T04:12:32;95559.59;;;15.45;88.86
77723;BME280;67811;42.656;23.394;2023-09-18T04:14:57;95557.97;;;15.51;88.61
77723;BME280;67811;42.656;23.394;2023-09-18T04:17:23;95561.31;;;15.66;87.67
77723;BME280;67811;42.656;23.394;2023-09-18T04:19:48;95554.88;;;15.54;87.80
77723;BME280;67811;42.656;23.394;2023-09-18T04:22:13;95555.09;;;15.46;87.96
77723;BME280;67811;42.656;23.394;2023-09-18T04:24:38;95559.19;;;15.42;88.45
77723;BME280;67811;42.656;23.394;2023-09-18T04:27:04;95565.75;;;15.46;88.30
77723;BME280;67811;42.656;23.394;2023-09-18T04:29:29;95560.81;;;15.43;88.21
77723;BME280;67811;42.656;23.394;2023-09-18T04:31:54;95566.97;;;15.43;88.40
77723;BME280;67811;42.656;23.394;2023-09-18T04:34:20;95554.22;;;15.32;88.45
77723;BME280;67811;42.656;23.394;2023-09-18T04:36:46;95571.09;;;15.39;88.34
77723;BME280;67811;42.656;23.394;2023-09-18T04:39:11;95567.81;;;15.44;88.40
77723;BME280;67811;42.656;23.394;2023-09-18T04:41:37;95568.00;;;15.49;88.05
77723;BME280;67811;42.656;23.394;2023-09-18T04:44:02;95567.84;;;15.57;88.00
77723;BME280;67811;42.656;23.394;2023-09-18T04:46:27;95561.53;;;15.71;87.10
77723;BME280;67811;42.656;23.394;2023-09-18T04:48:53;95563.56;;;15.76;86.67
77723;BME280;67811;42.656;23.394;2023-09-18T04:51:18;95575.28;;;15.88;86.01
77723;BME280;67811;42.656;23.394;2023-09-18T04:53:43;95570.34;;;15.92;85.73
77723;BME280;67811;42.656;23.394;2023-09-18T04:56:09;95572.59;;;16.15;85.41
77723;BME280;67811;42.656;23.394;2023-09-18T04:58:34;95567.25;;;16.08;84.09
77723;BME280;67811;42.656;23.394;2023-09-18T05:01:00;95555.97;;;16.06;84.44
77723;BME280;67811;42.656;23.394;2023-09-18T05:03:25;95558.63;;;16.06;84.54
77723;BME280;67811;42.656;23.394;2023-09-18T05:05:51;95563.34;;;16.11;83.87
77723;BME280;67811;42.656;23.394;2023-09-18T05:08:16;95557.78;;;16.12;83.81
77723;BME280;67811;42.656;23.394;2023-09-18T05:10:41;95564.97;;;16.18;83.60
77723;BME280;67811;42.656;23.394;2023-09-18T05:13:07;95563.13;;;16.32;83.39
77723;BME280;67811;42.656;23.394;2023-09-18T05:15:32;95554.88;;;16.33;83.15
77723;BME280;67811;42.656;23.394;2023-09-18T05:17:59;95560.00;;;16.48;82.51
77723;BME280;67811;42.656;23.394;2023-09-18T05:20:26;95565.72;;;16.58;82.18
77723;BME280;67811;42.656;23.394;2023-09-18T05:22:52;95563.63;;;16.80;81.74
77723;BME280;67811;42.656;23.394;2023-09-18T05:25:17;95572.47;;;16.88;81.03
77723;BME280;67811;42.656;23.394;2023-09-18T05:27:43;95579.38;;;17.02;80.47
77723;BME280;67811;42.656;23.394;2023-09-18T05:30:08;95573.59;;;17.11;79.51
77723;BME280;67811;42.656;23.394;2023-09-18T05:32:34;95572.59;;;17.06;79.58
77723;BME280;67811;42.656;23.394;2023-09-18T05:34:59;95572.47;;;17.32;78.81
77723;BME280;67811;42.656;23.394;2023-09-18T05:37:24;95567.47;;;17.36;79.20
77723;BME280;67811;42.656;23.394;2023-09-18T05:39:50;95572.31;;;17.59;78.17
77723;BME280;67811;42.656;23.394;2023-09-18T05:42:15;95573.53;;;17.56;77.63
77723;BME280;67811;42.656;23.394;2023-09-18T05:44:40;95575.88;;;17.46;78.21
77723;BME280;67811;42.656;23.394;2023-09-18T05:47:05;95559.66;;;17.73;77.71
77723;BME280;67811;42.656;23.394;2023-09-18T05:49:31;95579.22;;;17.73;77.62
77723;BME280;67811;42.656;23.394;2023-09-18T05:51:56;95574.91;;;17.72;77.45
77723;BME280;67811;42.656;23.394;2023-09-18T05:54:21;95579.50;;;17.90;77.08
77723;BME280;67811;42.656;23.394;2023-09-18T05:56:46;95583.41;;;18.19;76.29
77723;BME280;67811;42.656;23.394;2023-09-18T05:59:12;95581.72;;;18.86;72.74
77723;BME280;67811;42.656;23.394;2023-09-18T06:01:37;95568.16;;;18.81;72.03
77723;BME280;67811;42.656;23.394;2023-09-18T06:04:02;95577.66;;;18.40;73.01
77723;BME280;67811;42.656;23.394;2023-09-18T06:06:27;95581.44;;;18.76;72.63
77723;BME280;67811;42.656;23.394;2023-09-18T06:08:53;95580.06;;;19.04;71.18
77723;BME280;67811;42.656;23.394;2023-09-18T06:11:18;95567.91;;;19.19;70.15
77723;BME280;67811;42.656;23.394;2023-09-18T06:13:43;95559.78;;;19.08;70.12
77723;BME280;67811;42.656;23.394;2023-09-18T06:16:08;95566.25;;;19.00;70.14
77723;BME280;67811;42.656;23.394;2023-09-18T06:18:34;95578.13;;;19.11;70.28
77723;BME280;67811;42.656;23.394;2023-09-18T06:20:59;95568.75;;;19.32;69.41
77723;BME280;67811;42.656;23.394;2023-09-18T06:23:24;95568.81;;;19.62;68.36
77723;BME280;67811;42.656;23.394;2023-09-18T06:25:49;95575.44;;;20.01;66.46
77723;BME280;67811;42.656;23.394;2023-09-18T06:28:15;95571.47;;;20.15;65.63
77723;BME280;67811;42.656;23.394;2023-09-18T06:30:40;95578.84;;;20.32;64.80
77723;BME280;67811;42.656;23.394;2023-09-18T06:33:05;95584.84;;;20.34;64.78
77723;BME280;67811;42.656;23.394;2023-09-18T06:35:31;95584.38;;;20.60;64.23
77723;BME280;67811;42.656;23.394;2023-09-18T06:37:56;95583.66;;;20.88;62.62
77723;BME280;67811;42.656;23.394;2023-09-18T06:40:21;95587.25;;;21.05;62.18
77723;BME280;67811;42.656;23.394;2023-09-18T06:42:46;95586.16;;;21.18;61.45
77723;BME280;67811;42.656;23.394;2023-09-18T06:45:12;95588.03;;;21.18;61.78
77723;BME280;67811;42.656;23.394;2023-09-18T06:47:37;95577.06;;;20.96;62.95
77723;BME280;67811;42.656;23.394;2023-09-18T06:50:02;95585.09;;;21.31;60.51
77723;BME280;67811;42.656;23.394;2023-09-18T06:52:28;95580.69;;;21.01;61.41
77723;BME280;67811;42.656;23.394;2023-09-18T06:54:53;95587.28;;;20.82;62.70
77723;BME280;67811;42.656;23.394;2023-09-18T06:57:19;95579.88;;;21.01;60.93
77723;BME280;67811;42.656;23.394;2023-09-18T06:59:44;95588.13;;;20.83;61.74
77723;BME280;67811;42.656;23.394;2023-09-18T07:02:09;95590.69;;;20.77;61.74
77723;BME280;67811;42.656;23.394;2023-09-18T07:04:35;95577.03;;;20.56;63.13
77723;BME280;67811;42.656;23.394;2023-09-18T07:07:00;95581.84;;;21.17;61.35
77723;BME280;67811;42.656;23.394;2023-09-18T07:09:25;95581.34;;;21.20;60.45
77723;BME280;67811;42.656;23.394;2023-09-18T07:11:51;95584.09;;;20.97;60.49
77723;BME280;67811;42.656;23.394;2023-09-18T07:14:16;95591.22;;;21.03;61.73
77723;BME280;67811;42.656;23.394;2023-09-18T07:16:41;95580.97;;;21.86;58.92
77723;BME280;67811;42.656;23.394;2023-09-18T07:19:06;95578.19;;;22.26;57.49
77723;BME280;67811;42.656;23.394;2023-09-18T07:21:32;95587.75;;;22.50;56.38
77723;BME280;67811;42.656;23.394;2023-09-18T07:23:57;95582.50;;;22.60;55.81
77723;BME280;67811;42.656;23.394;2023-09-18T07:26:22;95586.44;;;22.53;55.55
77723;BME280;67811;42.656;23.394;2023-09-18T07:28:48;95579.09;;;22.15;56.89
77723;BME280;67811;42.656;23.394;2023-09-18T07:31:13;95585.22;;;21.65;57.82
77723;BME280;67811;42.656;23.394;2023-09-18T07:33:38;95589.63;;;21.42;59.16
77723;BME280;67811;42.656;23.394;2023-09-18T07:36:03;95584.22;;;22.33;57.39
77723;BME280;67811;42.656;23.394;2023-09-18T07:38:29;95585.69;;;23.13;54.38
77723;BME280;67811;42.656;23.394;2023-09-18T07:40:54;95588.25;;;22.86;53.69
77723;BME280;67811;42.656;23.394;2023-09-18T07:43:19;95591.78;;;22.86;54.47
77723;BME280;67811;42.656;23.394;2023-09-18T07:45:44;95582.53;;;23.21;53.71
77723;BME280;67811;42.656;23.394;2023-09-18T07:48:10;95581.84;;;23.09;52.64
77723;BME280;67811;42.656;23.394;2023-09-18T07:50:35;95573.34;;;23.22;52.59
77723;BME280;67811;42.656;23.394;2023-09-18T07:53:01;95583.19;;;23.55;52.61
77723;BME280;67811;42.656;23.394;2023-09-18T07:55:27;95589.19;;;23.35;52.49
77723;BME280;67811;42.656;23.394;2023-09-18T07:57:52;95577.06;;;23.87;51.29
77723;BME280;67811;42.656;23.394;2023-09-18T08:00:17;95581.09;;;23.13;52.69
77723;BME280;67811;42.656;23.394;2023-09-18T08:02:43;95577.81;;;23.11;53.16
77723;BME280;67811;42.656;23.394;2023-09-18T08:05:08;95574.59;;;23.85;51.47
77723;BME280;67811;42.656;23.394;2023-09-18T08:07:35;95577.72;;;23.28;51.75
77723;BME280;67811;42.656;23.394;2023-09-18T08:10:00;95572.56;;;23.71;51.99
77723;BME280;67811;42.656;23.394;2023-09-18T08:12:25;95565.00;;;24.69;49.52
77723;BME280;67811;42.656;23.394;2023-09-18T08:14:51;95560.28;;;24.54;48.78
77723;BME280;67811;42.656;23.394;2023-09-18T08:17:16;95563.53;;;24.51;48.42
77723;BME280;67811;42.656;23.394;2023-09-18T08:19:41;95558.44;;;24.28;49.46
77723;BME280;67811;42.656;23.394;2023-09-18T08:22:07;95566.72;;;24.85;47.89
77723;BME280;67811;42.656;23.394;2023-09-18T08:24:33;95560.09;;;25.08;47.27
77723;BME280;67811;42.656;23.394;2023-09-18T08:26:58;95564.31;;;25.46;46.26
77723;BME280;67811;42.656;23.394;2023-09-18T08:29:23;95560.53;;;25.63;46.11
77723;BME280;67811;42.656;23.394;2023-09-18T08:31:49;95555.19;;;25.10;46.40
77723;BME280;67811;42.656;23.394;2023-09-18T08:34:14;95561.84;;;23.81;49.75
77723;BME280;67811;42.656;23.394;2023-09-18T08:36:39;95556.22;;;24.19;49.06
77723;BME280;67811;42.656;23.394;2023-09-18T08:39:05;95546.81;;;24.64;48.56
77723;BME280;67811;42.656;23.394;2023-09-18T08:41:31;95552.59;;;25.36;46.26
77723;BME280;67811;42.656;23.394;2023-09-18T08:44:01;95545.38;;;25.72;45.38
77723;BME280;67811;42.656;23.394;2023-09-18T08:46:27;95544.19;;;25.37;45.02
77723;BME280;67811;42.656;23.394;2023-09-18T08:48:52;95539.28;;;25.29;46.02
77723;BME280;67811;42.656;23.394;2023-09-18T08:51:19;95534.25;;;24.48;48.06
77723;BME280;67811;42.656;23.394;2023-09-18T08:53:45;95541.00;;;24.13;48.36
77723;BME280;67811;42.656;23.394;2023-09-18T08:56:12;95538.19;;;24.73;48.09
77723;BME280;67811;42.656;23.394;2023-09-18T08:58:38;95542.78;;;24.72;47.11
77723;BME280;67811;42.656;23.394;2023-09-18T09:01:04;95536.69;;;24.50;47.45
77723;BME280;67811;42.656;23.394;2023-09-18T09:03:30;95540.63;;;23.24;51.00
77723;BME280;67811;42.656;23.394;2023-09-18T09:05:56;95536.25;;;23.66;50.32
77723;BME280;67811;42.656;23.394;2023-09-18T09:08:21;95531.94;;;23.44;50.66
77723;BME280;67811;42.656;23.394;2023-09-18T09:10:48;95537.56;;;23.91;49.86
77723;BME280;67811;42.656;23.394;2023-09-18T09:13:13;95532.75;;;24.67;47.59
77723;BME280;67811;42.656;23.394;2023-09-18T09:15:46;95533.72;;;25.77;44.40
77723;BME280;67811;42.656;23.394;2023-09-18T09:18:12;95532.38;;;26.66;42.25
77723;BME280;67811;42.656;23.394;2023-09-18T09:20:38;95529.38;;;26.37;41.97
77723;BME280;67811;42.656;23.394;2023-09-18T09:23:07;95533.97;;;25.70;43.39
77723;BME280;67811;42.656;23.394;2023-09-18T09:25:33;95534.16;;;25.43;44.09
77723;BME280;67811;42.656;23.394;2023-09-18T09:28:03;95519.03;;;25.67;43.59
77723;BME280;67811;42.656;23.394;2023-09-18T09:30:29;95520.44;;;26.31;42.76
77723;BME280;67811;42.656;23.394;2023-09-18T09:32:56;95522.31;;;26.76;40.38
77723;BME280;67811;42.656;23.394;2023-09-18T09:37:47;95509.84;;;26.35;40.87
77723;BME280;67811;42.656;23.394;2023-09-18T09:40:12;95517.19;;;25.98;41.56
77723;BME280;67811;42.656;23.394;2023-09-18T09:42:39;95513.63;;;25.72;42.42
77723;BME280;67811;42.656;23.394;2023-09-18T09:45:05;95513.59;;;26.74;40.82
77723;BME280;67811;42.656;23.394;2023-09-18T09:47:34;95504.34;;;25.53;42.38
77723;BME280;67811;42.656;23.394;2023-09-18T09:50:06;95497.56;;;25.51;42.60
77723;BME280;67811;42.656;23.394;2023-09-18T09:52:33;95501.72;;;25.79;42.44
77723;BME280;67811;42.656;23.394;2023-09-18T09:54:58;95502.53;;;25.94;42.13
77723;BME280;67811;42.656;23.394;2023-09-18T09:57:24;95497.31;;;25.62;43.34
77723;BME280;67811;42.656;23.394;2023-09-18T09:59:49;95493.97;;;24.62;44.61
77723;BME280;67811;42.656;23.394;2023-09-18T10:02:15;95504.44;;;23.79;46.88
77723;BME280;67811;42.656;23.394;2023-09-18T10:04:41;95499.06;;;24.16;46.85
77723;BME280;67811;42.656;23.394;2023-09-18T10:07:08;95491.53;;;24.65;45.53
77723;BME280;67811;42.656;23.394;2023-09-18T10:09:36;95494.34;;;24.86;44.31
77723;BME280;67811;42.656;23.394;2023-09-18T10:12:14;95488.97;;;24.43;45.05
77723;BME280;67811;42.656;23.394;2023-09-18T10:14:43;95495.91;;;24.29;44.69
77723;BME280;67811;42.656;23.394;2023-09-18T10:17:16;95488.34;;;24.79;44.98
77723;BME280;67811;42.656;23.394;2023-09-18T10:22:37;95479.91;;;25.48;40.93
77723;BME280;67811;42.656;23.394;2023-09-18T10:25:32;95487.97;;;25.12;41.58
77723;BME280;67811;42.656;23.394;2023-09-18T10:27:58;95478.63;;;24.88;42.74
77723;BME280;67811;42.656;23.394;2023-09-18T10:30:24;95479.16;;;25.98;40.50
77723;BME280;67811;42.656;23.394;2023-09-18T10:32:51;95485.41;;;26.19;39.72
77723;BME280;67811;42.656;23.394;2023-09-18T10:35:17;95472.06;;;25.57;41.44
77723;BME280;67811;42.656;23.394;2023-09-18T10:37:43;95461.22;;;26.18;40.71
77723;BME280;67811;42.656;23.394;2023-09-18T10:40:09;95459.94;;;26.95;39.08
77723;BME280;67811;42.656;23.394;2023-09-18T10:42:39;95455.94;;;26.77;39.42
77723;BME280;67811;42.656;23.394;2023-09-18T10:45:06;95451.41;;;26.52;39.44
77723;BME280;67811;42.656;23.394;2023-09-18T10:47:34;95459.22;;;26.74;39.13
77723;BME280;67811;42.656;23.394;2023-09-18T10:50:00;95440.59;;;27.51;37.54
77723;BME280;67811;42.656;23.394;2023-09-18T10:52:25;95444.16;;;27.47;36.86
77723;BME280;67811;42.656;23.394;2023-09-18T10:54:51;95438.88;;;26.57;38.44
77723;BME280;67811;42.656;23.394;2023-09-18T10:57:16;95437.19;;;27.36;37.53
77723;BME280;67811;42.656;23.394;2023-09-18T10:59:48;95421.41;;;26.78;37.71
77723;BME280;67811;42.656;23.394;2023-09-18T11:02:17;95430.03;;;27.45;37.29
77723;BME280;67811;42.656;23.394;2023-09-18T11:04:42;95429.69;;;27.56;36.50
77723;BME280;67811;42.656;23.394;2023-09-18T11:07:09;95429.72;;;27.91;36.49
77723;BME280;67811;42.656;23.394;2023-09-18T11:09:45;95429.09;;;26.66;37.46
77723;BME280;67811;42.656;23.394;2023-09-18T11:12:11;95432.22;;;25.83;39.04
77723;BME280;67811;42.656;23.394;2023-09-18T11:14:56;95423.78;;;25.84;39.49
77723;BME280;67811;42.656;23.394;2023-09-18T11:17:39;95412.94;;;25.79;40.09
77723;BME280;67811;42.656;23.394;2023-09-18T11:20:16;95427.03;;;25.91;39.66
77723;BME280;67811;42.656;23.394;2023-09-18T11:23:10;95416.66;;;26.44;38.54
77723;BME280;67811;42.656;23.394;2023-09-18T11:27:58;95417.63;;;26.74;37.65
77723;BME280;67811;42.656;23.394;2023-09-18T11:30:24;95396.28;;;26.96;37.46
77723;BME280;67811;42.656;23.394;2023-09-18T11:32:50;95403.06;;;27.53;36.68
77723;BME280;67811;42.656;23.394;2023-09-18T11:35:15;95397.16;;;27.80;36.00
77723;BME280;67811;42.656;23.394;2023-09-18T11:37:41;95389.88;;;28.00;35.09
77723;BME280;67811;42.656;23.394;2023-09-18T11:40:29;95399.22;;;26.56;38.13
77723;BME280;67811;42.656;23.394;2023-09-18T11:45:41;95391.13;;;27.44;35.93
77723;BME280;67811;42.656;23.394;2023-09-18T11:48:07;95382.16;;;27.44;35.72
77723;BME280;67811;42.656;23.394;2023-09-18T11:50:33;95370.81;;;26.07;38.00
77723;BME280;67811;42.656;23.394;2023-09-18T11:52:59;95374.31;;;26.93;37.70
77723;BME280;67811;42.656;23.394;2023-09-18T11:55:25;95371.97;;;26.71;38.06
77723;BME280;67811;42.656;23.394;2023-09-18T11:57:51;95377.09;;;26.77;37.18
77723;BME280;67811;42.656;23.394;2023-09-18T12:00:20;95372.94;;;26.90;37.79
77723;BME280;67811;42.656;23.394;2023-09-18T12:02:45;95375.09;;;26.98;37.19
77723;BME280;67811;42.656;23.394;2023-09-18T12:05:13;95356.78;;;26.65;38.08
77723;BME280;67811;42.656;23.394;2023-09-18T12:07:40;95378.84;;;26.48;38.94
77723;BME280;67811;42.656;23.394;2023-09-18T12:10:06;95380.69;;;26.68;38.88
77723;BME280;67811;42.656;23.394;2023-09-18T12:12:32;95382.47;;;26.93;38.04
77723;BME280;67811;42.656;23.394;2023-09-18T12:14:58;95377.63;;;27.29;37.52
77723;BME280;67811;42.656;23.394;2023-09-18T12:17:24;95370.03;;;26.82;38.76
77723;BME280;67811;42.656;23.394;2023-09-18T12:19:53;95378.25;;;26.61;38.97
77723;BME280;67811;42.656;23.394;2023-09-18T12:22:29;95379.41;;;26.50;39.29
77723;BME280;67811;42.656;23.394;2023-09-18T12:25:11;95360.19;;;26.86;38.83
77723;BME280;67811;42.656;23.394;2023-09-18T12:27:36;95355.63;;;26.76;38.87
77723;BME280;67811;42.656;23.394;2023-09-18T12:30:03;95366.88;;;26.54;39.32
77723;BME280;67811;42.656;23.394;2023-09-18T12:32:29;95365.91;;;26.09;40.05
77723;BME280;67811;42.656;23.394;2023-09-18T12:34:54;95360.78;;;25.82;40.37
77723;BME280;67811;42.656;23.394;2023-09-18T12:37:19;95366.75;;;25.59;40.99
77723;BME280;67811;42.656;23.394;2023-09-18T12:39:45;95363.25;;;25.58;41.41
77723;BME280;67811;42.656;23.394;2023-09-18T12:42:10;95355.91;;;25.94;40.67
77723;BME280;67811;42.656;23.394;2023-09-18T12:44:36;95362.66;;;26.02;40.08
77723;BME280;67811;42.656;23.394;2023-09-18T12:47:02;95357.66;;;26.40;39.39
77723;BME280;67811;42.656;23.394;2023-09-18T12:49:30;95352.03;;;26.21;39.65
77723;BME280;67811;42.656;23.394;2023-09-18T12:51:59;95357.75;;;26.09;39.52
77723;BME280;67811;42.656;23.394;2023-09-18T12:54:41;95350.75;;;25.32;41.20
77723;BME280;67811;42.656;23.394;2023-09-18T12:57:07;95352.94;;;25.75;40.78